createdAt,value
2018-11-29T00:00:52.456Z,5.35
2018-11-29T00:15:53.424Z,4.10
2018-11-29T00:30:51.315Z,4.22
2018-11-29T00:45:50.664Z,4.42
2018-11-29T01:00:50.631Z,5.15
2018-11-29T01:15:51.591Z,5.47
2018-11-29T01:30:53.557Z,4.80
2018-11-29T01:45:50.841Z,5.67
2018-11-29T02:00:50.842Z,5.70
2018-11-29T02:15:50.768Z,4.35
2018-11-29T02:30:52.768Z,5.45
2018-11-29T02:45:51.106Z,5.90
2018-11-29T03:00:51.225Z,5.15
2018-11-29T03:15:51.028Z,4.20
2018-11-29T03:30:50.874Z,4.92
2018-11-29T03:45:52.282Z,5.08
2018-11-29T04:00:55.382Z,5.25
2018-11-29T04:15:53.201Z,4.10
2018-11-29T04:30:53.099Z,4.87
2018-11-29T05:00:57.819Z,4.12
2018-11-29T05:15:58.993Z,4.95
2018-11-29T05:30:57.201Z,6.42
2018-11-29T05:45:51.119Z,6.70
2018-11-29T06:00:50.526Z,5.30
2018-11-29T06:15:51.373Z,5.40
2018-11-29T06:30:51.377Z,6.30
2018-11-29T06:45:50.740Z,7.80
2018-11-29T07:00:50.700Z,7.40
2018-11-29T07:15:50.700Z,9.30
2018-11-29T07:30:50.535Z,7.85
2018-11-29T07:45:50.950Z,8.50
2018-11-29T08:00:50.882Z,8.55
2018-11-29T08:15:50.805Z,7.65
2018-11-29T08:30:50.690Z,9.05
2018-11-29T08:45:51.206Z,8.00
2018-11-29T09:00:51.062Z,8.18
2018-11-29T09:15:50.967Z,7.80
2018-11-29T09:30:50.963Z,7.40
2018-11-29T09:45:51.298Z,8.08
2018-11-29T10:00:50.840Z,9.78
2018-11-29T10:15:50.721Z,7.60
2018-11-29T10:30:59.432Z,8.33
2018-11-29T10:45:52.753Z,6.90
2018-11-29T11:00:55.655Z,7.10
2018-11-29T11:15:51.351Z,7.53
2018-11-29T11:30:51.364Z,8.20
2018-11-29T11:45:50.835Z,9.75
2018-11-29T12:00:50.735Z,9.35
2018-11-29T12:15:50.587Z,10.03
2018-11-29T12:30:51.206Z,10.40
2018-11-29T12:45:51.970Z,9.45
2018-11-29T13:00:51.513Z,11.12
2018-11-29T13:15:50.878Z,9.33
2018-11-29T13:30:50.906Z,10.18
2018-11-29T13:45:51.239Z,10.90
2018-11-29T14:00:53.328Z,10.58
2018-11-29T14:15:51.069Z,12.30
2018-11-29T14:30:51.095Z,11.10
2018-11-29T14:45:51.422Z,12.00
2018-11-29T15:00:51.468Z,13.20
2018-11-29T15:15:53.369Z,13.00
2018-11-29T15:30:52.403Z,12.78
2018-11-29T15:45:51.068Z,11.97
2018-11-29T16:00:52.314Z,12.98
2018-11-29T16:15:50.644Z,12.65
2018-11-29T16:30:54.346Z,14.03
2018-11-29T16:45:50.910Z,14.10
2018-11-29T17:00:51.970Z,11.63
2018-11-29T17:15:53.938Z,12.80
2018-11-29T17:30:50.814Z,12.37
2018-11-29T17:45:53.201Z,12.10
2018-11-29T18:00:54.077Z,10.40
2018-11-29T18:15:53.117Z,10.13
2018-11-29T18:30:50.921Z,12.20
2018-11-29T18:45:51.379Z,10.80
2018-11-29T19:00:51.188Z,10.10
2018-11-29T19:15:51.234Z,10.50
2018-11-29T19:30:51.411Z,10.95
2018-11-29T19:45:52.298Z,11.08
2018-11-29T20:00:51.894Z,11.03
2018-11-29T20:15:54.004Z,10.98
2018-11-29T20:30:53.507Z,12.40
2018-11-29T20:45:55.667Z,12.37
2018-11-29T21:00:52.667Z,13.32
2018-11-29T21:15:51.714Z,14.33
2018-11-29T21:30:51.491Z,14.75
2018-11-29T21:45:50.849Z,16.42
2018-11-29T22:00:50.763Z,15.15
2018-11-29T22:15:50.780Z,15.45
2018-11-29T22:30:53.475Z,12.18
2018-11-29T22:45:51.138Z,10.82
2018-11-29T23:00:52.586Z,11.38
2018-11-29T23:15:50.871Z,10.60
2018-11-29T23:30:50.869Z,11.85
2018-11-29T23:45:51.114Z,11.70
